MV Causeway Supplier — ZR2426 — position and weather

sailwx.info

Track history (hours):
 
Tides and Currents Weather Stations Pressure Air Temp Water Temp Dewpoint Dewpoint Depression Visibility Wind Speed Wind Dir Waves Ship Positions

MV Causeway Supplier

Last reported at 2014-Jul-30 14:33 UTC. Time now 2014-Jul-30 21:20 UTC.
Position S 29°53' E 031°03'.

Length 22 m; draft 2.7 m.

Type: . MMSI: 601041200.

Date/timePositionNaut miles runAvg speedWind from/ knotsBaromVisibWave heightAir tempDewpointWater temp
2014-Jul-30 14:33S 29°53' E 031°03'6 5.8
2014-Jul-30 13:33S 29°56' E 031°09'6 5.7
2014-Jul-30 12:33S 29°52' E 031°03'2 1.9
2014-Jul-30 11:30S 29°52' E 031°01'0 0.0
2014-Jul-30 10:33S 29°52' E 031°01'2 1.9
2014-Jul-30 09:31S 29°54' E 031°00'1 0.9
2014-Jul-30 08:32S 29°53' E 031°00'7 6.9
2014-Jul-30 07:33S 29°53' E 031°08'0 0.4
2014-Jul-30 06:33S 29°54' E 031°08'4 4.5
2014-Jul-30 05:33S 29°52' E 031°03'3 2.8
2014-Jul-30 04:32S 29°54' E 031°00'0 0.0
2014-Jul-30 03:33S 29°54' E 031°00'0 0.0
2014-Jul-30 02:33S 29°54' E 031°00'0 0.0
2014-Jul-30 01:31S 29°54' E 031°00'0 0.0
2014-Jul-30 00:32S 29°54' E 031°00'0 0.0
2014-Jul-29 23:32S 29°54' E 031°00'0 0.0
2014-Jul-29 22:34S 29°54' E 031°00'0 0.0
2014-Jul-29 21:29S 29°54' E 031°00'0 0.0
2014-Jul-29 20:31S 29°54' E 031°00'0 0.0
2014-Jul-29 19:27S 29°54' E 031°00'0 0.0
2014-Jul-29 13:28S 29°54' E 031°00'0 0.0
2014-Jul-29 12:32S 29°54' E 031°00'0 0.0
2014-Jul-29 11:31S 29°54' E 031°00'0 0.0
2014-Jul-29 09:30S 29°54' E 031°00'0 0.0
2014-Jul-29 08:32S 29°54' E 031°00'0 0.0
2014-Jul-29 07:26S 29°54' E 031°00'3 0.1
2014-Jul-28 12:33S 29°52' E 031°03'8 7.8
2014-Jul-28 11:33S 29°50' E 031°12'1 0.7
2014-Jul-28 10:34S 29°51' E 031°12'3 3.3
2014-Jul-28 09:33S 29°51' E 031°08'5 0.2
2014-Jul-27 12:33S 29°52' E 031°02'5 4.7
2014-Jul-27 11:34S 29°51' E 031°08'4 4.0
2014-Jul-27 10:33S 29°52' E 031°03'3 1.3
2014-Jul-27 08:33S 29°54' E 031°00'8 7.6
2014-Jul-27 07:33S 29°51' E 031°08'1 0.9
2014-Jul-27 06:33S 29°51' E 031°09'2 2.1
2014-Jul-27 05:33S 29°51' E 031°07'6 6.1
2014-Jul-27 04:31S 29°54' E 031°00'1 0.0
2014-Jul-25 11:33S 29°53' E 031°00'3 3.4
2014-Jul-25 10:34S 29°52' E 031°04'3 3.1
2014-Jul-25 09:33S 29°54' E 031°07'2 2.1
2014-Jul-25 08:33S 29°52' E 031°08'4 3.7
2014-Jul-25 07:34S 29°49' E 031°08'1 0.5
2014-Jul-25 06:33S 29°49' E 031°08'4 4.0
2014-Jul-25 05:33S 29°51' E 031°05'5 4.5
2014-Jul-25 04:33S 29°54' E 031°00'2 0.1
2014-Jul-24 11:18S 29°52' E 031°01'7 8.8
2014-Jul-24 10:33S 29°50' E 031°08'1 0.5
2014-Jul-24 09:33S 29°51' E 031°08'4 4.5
2014-Jul-24 08:34S 29°52' E 031°03'2 1.0
2014-Jul-24 06:13S 29°52' E 031°01'1 2.1
2014-Jul-24 05:32S 29°53' E 031°00'1 0.6
2014-Jul-24 04:30S 29°54' E 031°00'  
2014-Jul-21 12:33S 29°54' E 031°00'0 0.0
2014-Jul-21 11:33S 29°54' E 031°00'0 0.0
2014-Jul-21 10:33S 29°54' E 031°00'0 0.0
2014-Jul-21 09:33S 29°54' E 031°00'0 0.0
2014-Jul-21 08:33S 29°54' E 031°00'0 0.0
2014-Jul-21 07:33S 29°54' E 031°00'0 0.0
2014-Jul-21 06:33S 29°54' E 031°00'0 0.0
2014-Jul-21 05:28S 29°54' E 031°00'0 0.0
2014-Jul-21 04:33S 29°54' E 031°00'0 0.0
2014-Jul-21 03:33S 29°54' E 031°00'0 0.0
2014-Jul-21 02:33S 29°54' E 031°00'0 0.0
2014-Jul-21 01:33S 29°54' E 031°00'0 0.0
2014-Jul-21 00:33S 29°54' E 031°00'0 0.0
2014-Jul-20 23:33S 29°54' E 031°00'0 0.0
2014-Jul-20 22:33S 29°54' E 031°00'0 0.0
2014-Jul-20 21:33S 29°54' E 031°00'0 0.0
2014-Jul-20 20:33S 29°54' E 031°00'0 0.0
2014-Jul-20 19:33S 29°54' E 031°00'0 0.0
2014-Jul-20 18:33S 29°54' E 031°00'0 0.0
2014-Jul-20 17:33S 29°54' E 031°00'0 0.0
2014-Jul-20 16:33S 29°54' E 031°00'0 0.0
2014-Jul-20 15:33S 29°54' E 031°00'0 0.0
2014-Jul-20 14:33S 29°54' E 031°00'  
Track history (hours):
 
Tides and Currents Weather Stations Pressure Air Temp Water Temp Dewpoint Dewpoint Depression Visibility Wind Speed Wind Dir Waves Ship Positions

MV Causeway Supplier

Last reported at 2014-Jul-30 14:33 UTC. Time now 2014-Jul-30 21:20 UTC.
Position S 29°53' E 031°03'.

Length 22 m; draft 2.7 m.

Type: . MMSI: 601041200.

Date/timePositionNaut miles runAvg speedWind from/ knotsBaromVisibWave heightAir tempDewpointWater temp
2014-Jul-30 14:33S 29°53' E 031°03'6 5.8
2014-Jul-30 13:33S 29°56' E 031°09'6 5.7
2014-Jul-30 12:33S 29°52' E 031°03'2 1.9
2014-Jul-30 11:30S 29°52' E 031°01'0 0.0
2014-Jul-30 10:33S 29°52' E 031°01'2 1.9
2014-Jul-30 09:31S 29°54' E 031°00'1 0.9
2014-Jul-30 08:32S 29°53' E 031°00'7 6.9
2014-Jul-30 07:33S 29°53' E 031°08'0 0.4
2014-Jul-30 06:33S 29°54' E 031°08'4 4.5
2014-Jul-30 05:33S 29°52' E 031°03'3 2.8
2014-Jul-30 04:32S 29°54' E 031°00'0 0.0
2014-Jul-30 03:33S 29°54' E 031°00'0 0.0
2014-Jul-30 02:33S 29°54' E 031°00'0 0.0
2014-Jul-30 01:31S 29°54' E 031°00'0 0.0
2014-Jul-30 00:32S 29°54' E 031°00'0 0.0
2014-Jul-29 23:32S 29°54' E 031°00'0 0.0
2014-Jul-29 22:34S 29°54' E 031°00'0 0.0
2014-Jul-29 21:29S 29°54' E 031°00'0 0.0
2014-Jul-29 20:31S 29°54' E 031°00'0 0.0
2014-Jul-29 19:27S 29°54' E 031°00'0 0.0
2014-Jul-29 13:28S 29°54' E 031°00'0 0.0
2014-Jul-29 12:32S 29°54' E 031°00'0 0.0
2014-Jul-29 11:31S 29°54' E 031°00'0 0.0
2014-Jul-29 09:30S 29°54' E 031°00'0 0.0
2014-Jul-29 08:32S 29°54' E 031°00'0 0.0
2014-Jul-29 07:26S 29°54' E 031°00'3 0.1
2014-Jul-28 12:33S 29°52' E 031°03'8 7.8
2014-Jul-28 11:33S 29°50' E 031°12'1 0.7
2014-Jul-28 10:34S 29°51' E 031°12'3 3.3
2014-Jul-28 09:33S 29°51' E 031°08'5 0.2
2014-Jul-27 12:33S 29°52' E 031°02'5 4.7
2014-Jul-27 11:34S 29°51' E 031°08'4 4.0
2014-Jul-27 10:33S 29°52' E 031°03'3 1.3
2014-Jul-27 08:33S 29°54' E 031°00'8 7.6
2014-Jul-27 07:33S 29°51' E 031°08'1 0.9
2014-Jul-27 06:33S 29°51' E 031°09'2 2.1
2014-Jul-27 05:33S 29°51' E 031°07'6 6.1
2014-Jul-27 04:31S 29°54' E 031°00'1 0.0
2014-Jul-25 11:33S 29°53' E 031°00'3 3.4
2014-Jul-25 10:34S 29°52' E 031°04'3 3.1
2014-Jul-25 09:33S 29°54' E 031°07'2 2.1
2014-Jul-25 08:33S 29°52' E 031°08'4 3.7
2014-Jul-25 07:34S 29°49' E 031°08'1 0.5
2014-Jul-25 06:33S 29°49' E 031°08'4 4.0
2014-Jul-25 05:33S 29°51' E 031°05'5 4.5
2014-Jul-25 04:33S 29°54' E 031°00'2 0.1
2014-Jul-24 11:18S 29°52' E 031°01'7 8.8
2014-Jul-24 10:33S 29°50' E 031°08'1 0.5
2014-Jul-24 09:33S 29°51' E 031°08'4 4.5
2014-Jul-24 08:34S 29°52' E 031°03'2 1.0
2014-Jul-24 06:13S 29°52' E 031°01'1 2.1
2014-Jul-24 05:32S 29°53' E 031°00'1 0.6
2014-Jul-24 04:30S 29°54' E 031°00'  
2014-Jul-21 12:33S 29°54' E 031°00'0 0.0
2014-Jul-21 11:33S 29°54' E 031°00'0 0.0
2014-Jul-21 10:33S 29°54' E 031°00'0 0.0
2014-Jul-21 09:33S 29°54' E 031°00'0 0.0
2014-Jul-21 08:33S 29°54' E 031°00'0 0.0
2014-Jul-21 07:33S 29°54' E 031°00'0 0.0
2014-Jul-21 06:33S 29°54' E 031°00'0 0.0
2014-Jul-21 05:28S 29°54' E 031°00'0 0.0
2014-Jul-21 04:33S 29°54' E 031°00'0 0.0
2014-Jul-21 03:33S 29°54' E 031°00'0 0.0
2014-Jul-21 02:33S 29°54' E 031°00'0 0.0
2014-Jul-21 01:33S 29°54' E 031°00'0 0.0
2014-Jul-21 00:33S 29°54' E 031°00'0 0.0
2014-Jul-20 23:33S 29°54' E 031°00'0 0.0
2014-Jul-20 22:33S 29°54' E 031°00'0 0.0
2014-Jul-20 21:33S 29°54' E 031°00'0 0.0
2014-Jul-20 20:33S 29°54' E 031°00'0 0.0
2014-Jul-20 19:33S 29°54' E 031°00'0 0.0
2014-Jul-20 18:33S 29°54' E 031°00'0 0.0
2014-Jul-20 17:33S 29°54' E 031°00'0 0.0
2014-Jul-20 16:33S 29°54' E 031°00'0 0.0
2014-Jul-20 15:33S 29°54' E 031°00'0 0.0
2014-Jul-20 14:33S 29°54' E 031°00'  

Dump ship's entire track history